Nearchos — SVAI4 — position and weather

sailwx.info

Track history (hours):
 
Tides and Currents Weather Stations Pressure Air Temp Water Temp Dewpoint Dewpoint Depression Visibility Wind Speed Wind Dir Waves Ship Positions

Nearchos

Last reported at 2017-Nov-04 07:53 UTC. Time now 2017-Nov-23 18:43 UTC.
Position N 37°57' E 023°33'.
Warning: this ship's position is 19 days out of date.

Length 87 m.

Type: Ship (hazmat cat D). MMSI: 239945400.

Date/timePositionNaut miles runAvg speedWind from/ knotsBaromVisibWave heightAir tempDewpointWater temp
2017-Nov-04 07:53N 37°57' E 023°33'0 0.0
2017-Nov-04 07:30N 37°57' E 023°33'0 0.0
2017-Nov-04 07:00N 37°57' E 023°33'2 3.2
2017-Nov-04 06:30N 37°57' E 023°35'1 2.7
2017-Nov-04 06:00N 37°57' E 023°36'0 0.0
2017-Nov-04 05:30N 37°57' E 023°36'0 0.0
2017-Nov-04 05:00N 37°57' E 023°36'0 0.0
2017-Nov-04 04:30N 37°57' E 023°36'0 0.0
2017-Nov-04 04:00N 37°57' E 023°36'0 0.0
2017-Nov-04 03:30N 37°57' E 023°36'0 0.0
2017-Nov-04 03:00N 37°57' E 023°36'0 0.0
2017-Nov-04 02:30N 37°57' E 023°36'0 0.0
2017-Nov-04 02:00N 37°57' E 023°36'0 0.0
2017-Nov-04 01:30N 37°57' E 023°36'0 0.0
2017-Nov-04 01:00N 37°57' E 023°36'0 0.0
2017-Nov-04 00:30N 37°57' E 023°36'0 0.0
2017-Nov-04 00:00N 37°57' E 023°36'0 0.0
2017-Nov-03 23:30N 37°57' E 023°36'0 0.0
2017-Nov-03 23:00N 37°57' E 023°36'0 0.0
2017-Nov-03 22:30N 37°57' E 023°36'0 0.0
2017-Nov-03 22:00N 37°57' E 023°36'0 0.0
2017-Nov-03 21:30N 37°57' E 023°36'0 0.0
2017-Nov-03 21:00N 37°57' E 023°36'0 0.0
2017-Nov-03 20:30N 37°57' E 023°36'0 0.0
2017-Nov-03 20:00N 37°57' E 023°36'0 0.0
2017-Nov-03 19:30N 37°57' E 023°36'0 0.0
2017-Nov-03 19:00N 37°57' E 023°36'0 0.0
2017-Nov-03 18:30N 37°57' E 023°36'0 0.0
2017-Nov-03 18:00N 37°57' E 023°36'0 0.0
2017-Nov-03 17:30N 37°57' E 023°36'0 0.0
2017-Nov-03 17:00N 37°57' E 023°36'0 0.0
2017-Nov-03 16:30N 37°57' E 023°36'0 0.0
2017-Nov-03 16:00N 37°57' E 023°36'0 0.0
2017-Nov-03 15:30N 37°57' E 023°36'0 0.0
2017-Nov-03 15:00N 37°57' E 023°36'0 0.0
2017-Nov-03 14:30N 37°57' E 023°36'0 0.0
2017-Nov-03 14:00N 37°57' E 023°36'0 0.0
2017-Nov-03 13:30N 37°57' E 023°36'0 0.0
2017-Nov-03 13:00N 37°57' E 023°36'0 0.0
2017-Nov-03 12:30N 37°57' E 023°36'0 0.0
2017-Nov-03 12:00N 37°57' E 023°36'0 0.0
2017-Nov-03 11:30N 37°57' E 023°36'0 0.0
2017-Nov-03 11:00N 37°57' E 023°36'0 0.0
2017-Nov-03 10:30N 37°57' E 023°36'0 0.0
2017-Nov-03 10:00N 37°57' E 023°36'0 0.0
2017-Nov-03 09:30N 37°57' E 023°36'0 0.0
2017-Nov-03 09:00N 37°57' E 023°36'0 0.0
2017-Nov-03 08:30N 37°57' E 023°36'0 0.0
2017-Nov-03 08:00N 37°57' E 023°36'0 0.0
2017-Nov-03 07:30N 37°57' E 023°36'0 0.0
2017-Nov-03 07:00N 37°57' E 023°36'0 0.0
2017-Nov-03 06:30N 37°57' E 023°36'0 0.0
2017-Nov-03 06:00N 37°57' E 023°36'0 0.0
2017-Nov-03 05:30N 37°57' E 023°36'0 0.0
2017-Nov-02 12:59N 37°57' E 023°36'7 0.2
2017-Nov-01 02:00N 37°51' E 023°39'612.9
2017-Nov-01 01:30N 37°45' E 023°43'612.1
2017-Nov-01 01:00N 37°40' E 023°47'1312.8
2017-Oct-31 23:59N 37°38' E 024°04'  
2017-Oct-28 19:01N 37°08' E 025°20'2 4.0
2017-Oct-28 18:31N 37°06' E 025°22'5 9.7
2017-Oct-28 18:00N 37°02' E 025°19'3 0.2
2017-Oct-28 05:54N 36°59' E 025°17'513.2
2017-Oct-28 05:31N 37°04' E 025°19'3 6.2
2017-Oct-28 05:01N 37°07' E 025°22'611.9
2017-Oct-28 04:31N 37°10' E 025°15'712.7
2017-Oct-28 03:59N 37°07' E 025°08'1 3.0
2017-Oct-28 03:30N 37°05' E 025°08'612.1
2017-Oct-28 03:01N 37°11' E 025°10'612.8
2017-Oct-28 02:31N 37°17' E 025°14'612.7
2017-Oct-28 02:00N 37°23' E 025°17'611.1
2017-Oct-28 01:31N 37°28' E 025°19'3 5.7
2017-Oct-28 01:01N 37°28' E 025°16'713.0
2017-Oct-28 00:31N 37°27' E 025°08'612.4
2017-Oct-28 00:01N 37°26' E 024°60'2 4.4
2017-Oct-27 23:31N 37°26' E 024°57'6 9.7
2017-Oct-27 22:56N 37°31' E 024°54'512.0
2017-Oct-27 22:30N 37°31' E 024°47'  
Track history (hours):
 
Tides and Currents Weather Stations Pressure Air Temp Water Temp Dewpoint Dewpoint Depression Visibility Wind Speed Wind Dir Waves Ship Positions

Nearchos

Last reported at 2017-Nov-04 07:53 UTC. Time now 2017-Nov-23 18:43 UTC.
Position N 37°57' E 023°33'.
Warning: this ship's position is 19 days out of date.

Length 87 m.

Type: Ship (hazmat cat D). MMSI: 239945400.

Date/timePositionNaut miles runAvg speedWind from/ knotsBaromVisibWave heightAir tempDewpointWater temp
2017-Nov-04 07:53N 37°57' E 023°33'0 0.0
2017-Nov-04 07:30N 37°57' E 023°33'0 0.0
2017-Nov-04 07:00N 37°57' E 023°33'2 3.2
2017-Nov-04 06:30N 37°57' E 023°35'1 2.7
2017-Nov-04 06:00N 37°57' E 023°36'0 0.0
2017-Nov-04 05:30N 37°57' E 023°36'0 0.0
2017-Nov-04 05:00N 37°57' E 023°36'0 0.0
2017-Nov-04 04:30N 37°57' E 023°36'0 0.0
2017-Nov-04 04:00N 37°57' E 023°36'0 0.0
2017-Nov-04 03:30N 37°57' E 023°36'0 0.0
2017-Nov-04 03:00N 37°57' E 023°36'0 0.0
2017-Nov-04 02:30N 37°57' E 023°36'0 0.0
2017-Nov-04 02:00N 37°57' E 023°36'0 0.0
2017-Nov-04 01:30N 37°57' E 023°36'0 0.0
2017-Nov-04 01:00N 37°57' E 023°36'0 0.0
2017-Nov-04 00:30N 37°57' E 023°36'0 0.0
2017-Nov-04 00:00N 37°57' E 023°36'0 0.0
2017-Nov-03 23:30N 37°57' E 023°36'0 0.0
2017-Nov-03 23:00N 37°57' E 023°36'0 0.0
2017-Nov-03 22:30N 37°57' E 023°36'0 0.0
2017-Nov-03 22:00N 37°57' E 023°36'0 0.0
2017-Nov-03 21:30N 37°57' E 023°36'0 0.0
2017-Nov-03 21:00N 37°57' E 023°36'0 0.0
2017-Nov-03 20:30N 37°57' E 023°36'0 0.0
2017-Nov-03 20:00N 37°57' E 023°36'0 0.0
2017-Nov-03 19:30N 37°57' E 023°36'0 0.0
2017-Nov-03 19:00N 37°57' E 023°36'0 0.0
2017-Nov-03 18:30N 37°57' E 023°36'0 0.0
2017-Nov-03 18:00N 37°57' E 023°36'0 0.0
2017-Nov-03 17:30N 37°57' E 023°36'0 0.0
2017-Nov-03 17:00N 37°57' E 023°36'0 0.0
2017-Nov-03 16:30N 37°57' E 023°36'0 0.0
2017-Nov-03 16:00N 37°57' E 023°36'0 0.0
2017-Nov-03 15:30N 37°57' E 023°36'0 0.0
2017-Nov-03 15:00N 37°57' E 023°36'0 0.0
2017-Nov-03 14:30N 37°57' E 023°36'0 0.0
2017-Nov-03 14:00N 37°57' E 023°36'0 0.0
2017-Nov-03 13:30N 37°57' E 023°36'0 0.0
2017-Nov-03 13:00N 37°57' E 023°36'0 0.0
2017-Nov-03 12:30N 37°57' E 023°36'0 0.0
2017-Nov-03 12:00N 37°57' E 023°36'0 0.0
2017-Nov-03 11:30N 37°57' E 023°36'0 0.0
2017-Nov-03 11:00N 37°57' E 023°36'0 0.0
2017-Nov-03 10:30N 37°57' E 023°36'0 0.0
2017-Nov-03 10:00N 37°57' E 023°36'0 0.0
2017-Nov-03 09:30N 37°57' E 023°36'0 0.0
2017-Nov-03 09:00N 37°57' E 023°36'0 0.0
2017-Nov-03 08:30N 37°57' E 023°36'0 0.0
2017-Nov-03 08:00N 37°57' E 023°36'0 0.0
2017-Nov-03 07:30N 37°57' E 023°36'0 0.0
2017-Nov-03 07:00N 37°57' E 023°36'0 0.0
2017-Nov-03 06:30N 37°57' E 023°36'0 0.0
2017-Nov-03 06:00N 37°57' E 023°36'0 0.0
2017-Nov-03 05:30N 37°57' E 023°36'0 0.0
2017-Nov-02 12:59N 37°57' E 023°36'7 0.2
2017-Nov-01 02:00N 37°51' E 023°39'612.9
2017-Nov-01 01:30N 37°45' E 023°43'612.1
2017-Nov-01 01:00N 37°40' E 023°47'1312.8
2017-Oct-31 23:59N 37°38' E 024°04'  
2017-Oct-28 19:01N 37°08' E 025°20'2 4.0
2017-Oct-28 18:31N 37°06' E 025°22'5 9.7
2017-Oct-28 18:00N 37°02' E 025°19'3 0.2
2017-Oct-28 05:54N 36°59' E 025°17'513.2
2017-Oct-28 05:31N 37°04' E 025°19'3 6.2
2017-Oct-28 05:01N 37°07' E 025°22'611.9
2017-Oct-28 04:31N 37°10' E 025°15'712.7
2017-Oct-28 03:59N 37°07' E 025°08'1 3.0
2017-Oct-28 03:30N 37°05' E 025°08'612.1
2017-Oct-28 03:01N 37°11' E 025°10'612.8
2017-Oct-28 02:31N 37°17' E 025°14'612.7
2017-Oct-28 02:00N 37°23' E 025°17'611.1
2017-Oct-28 01:31N 37°28' E 025°19'3 5.7
2017-Oct-28 01:01N 37°28' E 025°16'713.0
2017-Oct-28 00:31N 37°27' E 025°08'612.4
2017-Oct-28 00:01N 37°26' E 024°60'2 4.4
2017-Oct-27 23:31N 37°26' E 024°57'6 9.7
2017-Oct-27 22:56N 37°31' E 024°54'512.0
2017-Oct-27 22:30N 37°31' E 024°47'  

Dump ship's entire track history